createdAt,value
2018-04-26T00:03:23.933Z,4.57
2018-04-26T00:08:24.911Z,4.40
2018-04-26T00:13:26.050Z,5.10
2018-04-26T00:18:26.988Z,5.60
2018-04-26T00:23:27.954Z,4.77
2018-04-26T00:28:28.944Z,4.97
2018-04-26T00:33:29.950Z,4.57
2018-04-26T00:38:30.911Z,4.70
2018-04-26T00:43:31.928Z,5.87
2018-04-26T00:48:32.870Z,5.77
2018-04-26T00:53:33.814Z,5.50
2018-04-26T00:58:34.750Z,7.00
2018-04-26T01:03:35.708Z,7.47
2018-04-26T01:08:36.680Z,7.83
2018-04-26T01:13:37.637Z,8.00
2018-04-26T01:18:38.582Z,8.13
2018-04-26T01:23:39.554Z,9.30
2018-04-26T01:28:40.500Z,9.03
2018-04-26T01:33:41.460Z,10.13
2018-04-26T01:38:42.433Z,10.70
2018-04-26T01:43:43.408Z,9.17
2018-04-26T01:48:44.372Z,11.53
2018-04-26T01:53:45.359Z,12.00
2018-04-26T01:58:46.304Z,12.80
2018-04-26T02:03:47.248Z,14.70
2018-04-26T02:08:48.219Z,12.90
2018-04-26T02:13:49.201Z,13.00
2018-04-26T02:18:50.238Z,15.03
2018-04-26T02:23:51.153Z,14.73
2018-04-26T02:28:52.104Z,16.47
2018-04-26T02:33:53.069Z,16.43
2018-04-26T02:38:54.002Z,16.00
2018-04-26T02:43:54.979Z,18.77
2018-04-26T02:48:55.949Z,19.50
2018-04-26T02:53:56.894Z,18.90
2018-04-26T02:58:57.839Z,21.50
2018-04-26T03:03:58.791Z,20.27
2018-04-26T03:08:59.738Z,20.40
2018-04-26T03:14:00.692Z,17.90
2018-04-26T03:19:01.668Z,19.00
2018-04-26T03:24:02.617Z,19.70
2018-04-26T03:29:03.612Z,19.60
2018-04-26T03:34:04.585Z,18.73
2018-04-26T03:39:05.560Z,19.33
2018-04-26T03:44:06.532Z,20.23
2018-04-26T03:49:07.496Z,18.57
2018-04-26T03:54:08.450Z,18.70
2018-04-26T03:59:09.412Z,18.80
2018-04-26T04:04:22.793Z,21.37
2018-04-26T04:09:23.758Z,19.00
2018-04-26T04:14:24.723Z,19.50
2018-04-26T04:19:25.652Z,19.53
2018-04-26T04:24:26.628Z,19.47
2018-04-26T04:29:27.589Z,20.30
2018-04-26T04:34:28.555Z,25.33
2018-04-26T04:39:29.500Z,19.80
2018-04-26T04:44:30.469Z,19.30
2018-04-26T04:49:31.428Z,17.73
2018-04-26T04:54:32.387Z,16.23
2018-04-26T04:59:33.385Z,15.93
2018-04-26T05:04:34.322Z,13.83
2018-04-26T05:09:35.267Z,13.77
2018-04-26T05:14:36.201Z,10.37
2018-04-26T05:19:37.190Z,12.17
2018-04-26T05:24:38.127Z,12.07
2018-04-26T05:29:39.101Z,11.00
2018-04-26T05:34:40.061Z,12.93
2018-04-26T05:39:41.001Z,14.40
2018-04-26T05:44:41.983Z,11.80
2018-04-26T05:49:42.931Z,14.63
2018-04-26T05:54:43.895Z,13.40
2018-04-26T05:59:44.847Z,12.33
2018-04-26T06:04:45.811Z,12.00
2018-04-26T06:09:46.793Z,11.73
2018-04-26T06:14:47.815Z,12.00
2018-04-26T06:19:48.775Z,11.73
2018-04-26T06:24:49.719Z,11.27
2018-04-26T06:29:50.683Z,13.10
2018-04-26T06:34:51.664Z,13.13
2018-04-26T06:39:52.639Z,12.10
2018-04-26T06:44:53.610Z,12.73
2018-04-26T06:49:54.644Z,12.00
2018-04-26T06:54:55.555Z,10.63
2018-04-26T06:59:56.501Z,10.67
2018-04-26T07:04:57.460Z,9.63
2018-04-26T07:09:58.432Z,9.80
2018-04-26T07:14:59.406Z,9.43
2018-04-26T07:20:00.383Z,8.77
2018-04-26T07:25:01.405Z,10.77
2018-04-26T07:30:02.379Z,9.30
2018-04-26T07:35:03.349Z,8.77
2018-04-26T07:40:04.320Z,9.17
2018-04-26T07:45:05.357Z,7.93
2018-04-26T07:50:06.357Z,7.53
2018-04-26T07:55:07.327Z,7.67
2018-04-26T08:00:08.293Z,6.13
2018-04-26T08:05:09.267Z,5.43
2018-04-26T08:10:10.234Z,4.40
2018-04-26T08:15:11.207Z,4.00
2018-04-26T08:20:12.172Z,3.83
2018-04-26T08:25:13.148Z,3.30
2018-04-26T08:30:14.111Z,3.33
2018-04-26T08:35:15.082Z,3.93
2018-04-26T08:40:16.032Z,4.80
2018-04-26T08:45:17.051Z,4.33
2018-04-26T08:50:18.011Z,4.60
2018-04-26T08:55:18.972Z,4.00
2018-04-26T09:00:19.928Z,4.33
2018-04-26T09:05:20.895Z,5.17
2018-04-26T09:10:21.873Z,3.80
2018-04-26T09:15:22.880Z,3.63
2018-04-26T09:20:23.826Z,3.40
2018-04-26T09:25:24.752Z,3.37
2018-04-26T09:30:25.700Z,3.80
2018-04-26T09:35:26.671Z,4.43
2018-04-26T09:40:27.653Z,5.17
2018-04-26T09:45:28.640Z,4.70
2018-04-26T09:50:29.632Z,3.03
2018-04-26T09:55:30.602Z,2.90
2018-04-26T10:00:31.601Z,2.57
2018-04-26T10:05:38.712Z,2.03
2018-04-26T10:10:39.728Z,1.80
2018-04-26T10:15:40.694Z,1.73
2018-04-26T10:20:41.672Z,2.10
2018-04-26T10:25:42.667Z,1.60
2018-04-26T10:30:43.623Z,2.20
2018-04-26T10:35:44.599Z,2.63
2018-04-26T10:40:45.554Z,2.90
2018-04-26T10:45:46.569Z,4.87
2018-04-26T10:50:47.551Z,3.13
2018-04-26T10:55:48.519Z,3.60
2018-04-26T11:00:49.490Z,2.43
2018-04-26T11:05:50.488Z,1.93
2018-04-26T11:10:51.476Z,2.70
2018-04-26T11:15:52.435Z,1.87
2018-04-26T11:20:53.438Z,2.03
2018-04-26T11:25:54.440Z,1.60
2018-04-26T11:30:55.438Z,1.10
2018-04-26T11:35:56.407Z,1.40
2018-04-26T11:40:57.366Z,1.47
2018-04-26T11:45:58.395Z,1.20
2018-04-26T11:50:59.373Z,1.40
2018-04-26T11:56:00.326Z,1.43
2018-04-26T12:01:01.299Z,1.90
2018-04-26T12:06:02.274Z,1.27
2018-04-26T12:11:03.287Z,1.20
2018-04-26T12:16:04.280Z,1.57
2018-04-26T12:21:05.250Z,1.20
2018-04-26T12:26:06.213Z,1.80
2018-04-26T12:31:07.176Z,1.20
2018-04-26T12:36:08.149Z,1.77
2018-04-26T12:41:09.125Z,1.60
2018-04-26T12:46:10.204Z,1.90
2018-04-26T12:51:11.194Z,1.80
2018-04-26T12:56:12.260Z,2.10
2018-04-26T13:01:13.175Z,2.07
2018-04-26T13:06:14.185Z,1.63
2018-04-26T13:11:15.139Z,1.70
2018-04-26T13:16:16.111Z,1.60
2018-04-26T13:21:18.344Z,1.33
2018-04-26T13:26:19.284Z,2.00
2018-04-26T13:31:20.254Z,1.80
2018-04-26T13:36:21.322Z,3.00
2018-04-26T13:41:22.221Z,2.10
2018-04-26T13:46:23.328Z,2.57
2018-04-26T13:51:24.247Z,2.00
2018-04-26T13:56:25.230Z,2.40
2018-04-26T14:01:26.171Z,1.30
2018-04-26T14:06:27.156Z,2.23
2018-04-26T14:11:28.111Z,2.23
2018-04-26T14:16:29.075Z,1.97
2018-04-26T14:21:30.077Z,1.93
2018-04-26T14:26:31.085Z,2.00
2018-04-26T14:31:32.048Z,2.20
2018-04-26T14:36:33.033Z,1.77
2018-04-26T14:41:34.058Z,2.00
2018-04-26T14:46:35.068Z,1.70
2018-04-26T14:51:36.045Z,1.80
2018-04-26T14:56:37.026Z,2.00
2018-04-26T15:01:37.979Z,3.17
2018-04-26T15:06:38.974Z,2.20
2018-04-26T15:11:39.948Z,2.47
2018-04-26T15:16:40.919Z,3.40
2018-04-26T15:21:41.906Z,2.33
2018-04-26T15:26:42.869Z,2.40
2018-04-26T15:31:43.897Z,2.70
2018-04-26T15:36:44.893Z,2.70
2018-04-26T15:41:45.863Z,2.77
2018-04-26T15:46:46.872Z,2.67
2018-04-26T15:51:47.845Z,2.00
2018-04-26T15:57:01.118Z,2.80
2018-04-26T16:08:06.323Z,2.50
2018-04-26T16:13:25.838Z,2.83
2018-04-26T16:18:42.751Z,2.50
2018-04-26T16:24:02.316Z,2.10
2018-04-26T16:29:21.887Z,2.77
2018-04-26T16:34:48.764Z,2.83
2018-04-26T16:39:49.731Z,3.07
2018-04-26T16:44:50.737Z,1.80
2018-04-26T16:49:51.743Z,3.20
2018-04-26T16:54:52.715Z,3.73
2018-04-26T16:59:53.677Z,3.10
2018-04-26T17:04:54.727Z,2.33
2018-04-26T17:09:55.658Z,2.40
2018-04-26T17:14:56.644Z,3.00
2018-04-26T17:19:57.641Z,3.40
2018-04-26T17:24:58.612Z,2.80
2018-04-26T17:29:59.671Z,2.20
2018-04-26T17:35:00.663Z,2.90
2018-04-26T17:40:01.648Z,3.60
2018-04-26T17:45:02.664Z,3.47
2018-04-26T17:50:03.696Z,2.90
2018-04-26T17:55:04.689Z,2.83
2018-04-26T18:00:05.707Z,3.70
2018-04-26T18:05:06.700Z,3.73
2018-04-26T18:10:07.675Z,3.47
2018-04-26T18:15:08.672Z,4.80
2018-04-26T18:20:09.672Z,4.03
2018-04-26T18:25:10.673Z,3.83
2018-04-26T18:30:11.628Z,3.17
2018-04-26T18:35:12.635Z,4.13
2018-04-26T18:40:13.630Z,4.40
2018-04-26T18:45:14.624Z,4.17
2018-04-26T18:50:15.699Z,3.97
2018-04-26T18:55:16.712Z,3.40
2018-04-26T19:00:17.709Z,4.83
2018-04-26T19:05:18.718Z,4.37
2018-04-26T19:10:19.710Z,4.23
2018-04-26T19:15:20.704Z,4.90
2018-04-26T19:20:21.709Z,4.43
2018-04-26T19:25:22.750Z,4.77
2018-04-26T19:30:23.755Z,4.77
2018-04-26T19:35:24.771Z,5.27
2018-04-26T19:40:25.804Z,4.50
2018-04-26T19:45:29.480Z,3.70
2018-04-26T19:50:30.537Z,4.73
2018-04-26T19:55:31.574Z,4.67
2018-04-26T20:00:32.577Z,4.73
2018-04-26T20:05:33.575Z,5.03
2018-04-26T20:10:34.592Z,3.47
2018-04-26T20:15:35.619Z,4.57
2018-04-26T20:20:36.644Z,4.67
2018-04-26T20:25:37.657Z,5.17
2018-04-26T20:30:38.641Z,4.87
2018-04-26T20:35:39.635Z,5.20
2018-04-26T20:40:40.607Z,6.00
2018-04-26T20:45:41.633Z,4.87
2018-04-26T20:50:42.636Z,4.70
2018-04-26T20:55:43.588Z,4.60
2018-04-26T21:00:44.588Z,6.17
2018-04-26T21:05:45.548Z,5.90
2018-04-26T21:10:46.540Z,5.20
2018-04-26T21:15:47.506Z,4.90
2018-04-26T21:20:48.469Z,6.13
2018-04-26T21:25:49.421Z,5.87
2018-04-26T21:30:50.400Z,5.60
2018-04-26T21:35:51.371Z,6.80
2018-04-26T21:40:52.334Z,7.23
2018-04-26T21:45:53.284Z,6.03
2018-04-26T21:51:00.355Z,7.03
2018-04-26T21:56:07.480Z,6.20
2018-04-26T22:01:14.552Z,5.10
2018-04-26T22:06:15.541Z,6.67
2018-04-26T22:11:16.499Z,5.77
2018-04-26T22:16:17.463Z,6.00
2018-04-26T22:21:18.416Z,6.30
2018-04-26T22:26:19.385Z,5.67
2018-04-26T22:31:20.349Z,5.60
2018-04-26T22:36:21.294Z,6.93
2018-04-26T22:41:22.255Z,6.00
2018-04-26T22:46:23.209Z,6.43
2018-04-26T22:51:24.212Z,5.40
2018-04-26T22:56:25.186Z,5.37
2018-04-26T23:01:26.137Z,5.80
2018-04-26T23:06:27.142Z,6.97
2018-04-26T23:11:28.121Z,6.43
2018-04-26T23:16:29.085Z,6.40
2018-04-26T23:21:30.052Z,5.83
2018-04-26T23:26:31.009Z,7.63
2018-04-26T23:31:31.980Z,7.30
2018-04-26T23:36:33.146Z,6.67
2018-04-26T23:41:34.150Z,7.90
2018-04-26T23:46:35.107Z,7.37
2018-04-26T23:51:36.112Z,6.77
2018-04-26T23:56:37.047Z,6.87
